sensor_id;sensor_type;location;lat;lon;timestamp;temperature;humidity
8945;DHT22;4507;40.232;29.132;2023-01-10T00:00:32;5.30;66.20
8945;DHT22;4507;40.232;29.132;2023-01-10T00:03:05;5.40;66.40
8945;DHT22;4507;40.232;29.132;2023-01-10T00:05:36;5.30;66.50
8945;DHT22;4507;40.232;29.132;2023-01-10T00:08:07;5.30;66.50
8945;DHT22;4507;40.232;29.132;2023-01-10T00:10:55;5.30;66.60
8945;DHT22;4507;40.232;29.132;2023-01-10T00:13:24;5.30;66.60
8945;DHT22;4507;40.232;29.132;2023-01-10T00:15:54;5.40;66.70
8945;DHT22;4507;40.232;29.132;2023-01-10T00:18:24;5.40;66.60
8945;DHT22;4507;40.232;29.132;2023-01-10T00:20:53;5.40;66.60
8945;DHT22;4507;40.232;29.132;2023-01-10T00:23:22;5.30;66.50
8945;DHT22;4507;40.232;29.132;2023-01-10T00:25:51;5.30;66.60
8945;DHT22;4507;40.232;29.132;2023-01-10T00:28:21;5.30;66.60
8945;DHT22;4507;40.232;29.132;2023-01-10T00:30:51;5.30;66.70
8945;DHT22;4507;40.232;29.132;2023-01-10T00:33:29;5.30;66.70
8945;DHT22;4507;40.232;29.132;2023-01-10T00:35:59;5.30;66.70
8945;DHT22;4507;40.232;29.132;2023-01-10T00:38:29;5.20;66.70
8945;DHT22;4507;40.232;29.132;2023-01-10T00:40:59;5.20;66.90
8945;DHT22;4507;40.232;29.132;2023-01-10T00:43:28;5.20;67.00
8945;DHT22;4507;40.232;29.132;2023-01-10T00:46:15;5.20;67.00
8945;DHT22;4507;40.232;29.132;2023-01-10T00:48:45;5.20;67.10
8945;DHT22;4507;40.232;29.132;2023-01-10T00:51:15;5.20;67.10
8945;DHT22;4507;40.232;29.132;2023-01-10T00:53:44;5.20;67.20
8945;DHT22;4507;40.232;29.132;2023-01-10T00:56:13;5.20;67.20
8945;DHT22;4507;40.232;29.132;2023-01-10T00:58:42;5.20;67.20
8945;DHT22;4507;40.232;29.132;2023-01-10T01:01:11;5.20;67.10
8945;DHT22;4507;40.232;29.132;2023-01-10T01:03:40;5.20;67.00
8945;DHT22;4507;40.232;29.132;2023-01-10T01:06:11;5.20;67.10
8945;DHT22;4507;40.232;29.132;2023-01-10T01:08:40;5.20;67.00
8945;DHT22;4507;40.232;29.132;2023-01-10T01:11:09;5.20;67.00
8945;DHT22;4507;40.232;29.132;2023-01-10T01:13:38;5.20;67.00
8945;DHT22;4507;40.232;29.132;2023-01-10T01:16:07;5.20;67.00
8945;DHT22;4507;40.232;29.132;2023-01-10T01:18:36;5.20;66.90
8945;DHT22;4507;40.232;29.132;2023-01-10T01:21:05;5.30;66.90
8945;DHT22;4507;40.232;29.132;2023-01-10T01:23:36;5.30;66.90
8945;DHT22;4507;40.232;29.132;2023-01-10T01:26:05;5.30;66.90
8945;DHT22;4507;40.232;29.132;2023-01-10T01:28:34;5.30;66.70
8945;DHT22;4507;40.232;29.132;2023-01-10T01:31:07;5.30;66.70
8945;DHT22;4507;40.232;29.132;2023-01-10T01:33:55;5.30;66.60
8945;DHT22;4507;40.232;29.132;2023-01-10T01:36:24;5.30;66.50
8945;DHT22;4507;40.232;29.132;2023-01-10T01:38:55;5.30;66.60
8945;DHT22;4507;40.232;29.132;2023-01-10T01:41:24;5.40;66.70
8945;DHT22;4507;40.232;29.132;2023-01-10T01:44:30;5.30;66.40
8945;DHT22;4507;40.232;29.132;2023-01-10T01:47:02;5.40;66.40
8945;DHT22;4507;40.232;29.132;2023-01-10T01:49:36;5.30;66.30
8945;DHT22;4507;40.232;29.132;2023-01-10T01:52:08;5.40;66.40
8945;DHT22;4507;40.232;29.132;2023-01-10T01:54:41;5.30;66.30
8945;DHT22;4507;40.232;29.132;2023-01-10T01:57:13;5.40;66.40
8945;DHT22;4507;40.232;29.132;2023-01-10T01:59:46;5.40;66.30
8945;DHT22;4507;40.232;29.132;2023-01-10T02:02:18;5.40;66.30
8945;DHT22;4507;40.232;29.132;2023-01-10T02:04:51;5.40;66.30
8945;DHT22;4507;40.232;29.132;2023-01-10T02:07:23;5.30;66.20
8945;DHT22;4507;40.232;29.132;2023-01-10T02:09:59;5.40;66.40
8945;DHT22;4507;40.232;29.132;2023-01-10T02:12:31;5.30;66.20
8945;DHT22;4507;40.232;29.132;2023-01-10T02:15:02;5.40;66.30
8945;DHT22;4507;40.232;29.132;2023-01-10T02:17:31;5.30;66.20
8945;DHT22;4507;40.232;29.132;2023-01-10T02:20:02;5.40;66.40
8945;DHT22;4507;40.232;29.132;2023-01-10T02:23:04;5.30;66.30
8945;DHT22;4507;40.232;29.132;2023-01-10T02:26:16;5.40;66.40
8945;DHT22;4507;40.232;29.132;2023-01-10T02:32:08;5.40;66.30
8945;DHT22;4507;40.232;29.132;2023-01-10T02:34:50;5.40;66.30
8945;DHT22;4507;40.232;29.132;2023-01-10T02:37:27;5.40;66.20
8945;DHT22;4507;40.232;29.132;2023-01-10T02:40:05;5.40;66.30
8945;DHT22;4507;40.232;29.132;2023-01-10T02:42:38;5.40;66.10
8945;DHT22;4507;40.232;29.132;2023-01-10T02:45:15;5.40;66.10
8945;DHT22;4507;40.232;29.132;2023-01-10T02:47:47;5.40;66.10
8945;DHT22;4507;40.232;29.132;2023-01-10T02:50:29;5.40;66.10
8945;DHT22;4507;40.232;29.132;2023-01-10T02:53:00;5.40;66.10
8945;DHT22;4507;40.232;29.132;2023-01-10T02:55:39;5.40;66.10
8945;DHT22;4507;40.232;29.132;2023-01-10T02:58:17;5.40;66.20
8945;DHT22;4507;40.232;29.132;2023-01-10T03:00:52;5.40;66.20
8945;DHT22;4507;40.232;29.132;2023-01-10T03:03:32;5.40;66.30
8945;DHT22;4507;40.232;29.132;2023-01-10T03:06:15;5.40;66.40
8945;DHT22;4507;40.232;29.132;2023-01-10T03:08:50;5.40;66.40
8945;DHT22;4507;40.232;29.132;2023-01-10T03:11:26;5.40;66.40
8945;DHT22;4507;40.232;29.132;2023-01-10T03:14:14;5.40;66.30
8945;DHT22;4507;40.232;29.132;2023-01-10T03:16:48;5.40;66.10
8945;DHT22;4507;40.232;29.132;2023-01-10T03:19:23;5.40;66.10
8945;DHT22;4507;40.232;29.132;2023-01-10T03:21:55;5.40;66.10
8945;DHT22;4507;40.232;29.132;2023-01-10T03:24:30;5.40;66.10
8945;DHT22;4507;40.232;29.132;2023-01-10T03:27:05;5.40;66.10
8945;DHT22;4507;40.232;29.132;2023-01-10T03:29:40;5.40;66.00
8945;DHT22;4507;40.232;29.132;2023-01-10T03:32:13;5.50;66.10
8945;DHT22;4507;40.232;29.132;2023-01-10T03:34:44;5.50;66.00
8945;DHT22;4507;40.232;29.132;2023-01-10T03:37:19;5.50;65.90
8945;DHT22;4507;40.232;29.132;2023-01-10T03:39:59;5.50;65.90
8945;DHT22;4507;40.232;29.132;2023-01-10T03:42:39;5.50;65.80
8945;DHT22;4507;40.232;29.132;2023-01-10T03:45:34;5.50;65.90
8945;DHT22;4507;40.232;29.132;2023-01-10T03:48:07;5.60;65.70
8945;DHT22;4507;40.232;29.132;2023-01-10T03:50:39;5.50;65.60
8945;DHT22;4507;40.232;29.132;2023-01-10T03:53:28;5.60;65.60
8945;DHT22;4507;40.232;29.132;2023-01-10T03:55:59;5.60;65.60
8945;DHT22;4507;40.232;29.132;2023-01-10T03:58:28;5.60;65.60
8945;DHT22;4507;40.232;29.132;2023-01-10T04:00:57;5.70;65.60
8945;DHT22;4507;40.232;29.132;2023-01-10T04:03:27;5.60;65.50
8945;DHT22;4507;40.232;29.132;2023-01-10T04:05:57;5.60;65.50
8945;DHT22;4507;40.232;29.132;2023-01-10T04:08:26;5.60;65.50
8945;DHT22;4507;40.232;29.132;2023-01-10T04:10:55;5.60;65.50
8945;DHT22;4507;40.232;29.132;2023-01-10T04:13:24;5.60;65.50
8945;DHT22;4507;40.232;29.132;2023-01-10T04:15:53;5.60;65.50
8945;DHT22;4507;40.232;29.132;2023-01-10T04:18:22;5.60;65.50
8945;DHT22;4507;40.232;29.132;2023-01-10T04:20:51;5.60;65.50
8945;DHT22;4507;40.232;29.132;2023-01-10T04:23:22;5.60;65.50
8945;DHT22;4507;40.232;29.132;2023-01-10T04:25:51;5.60;65.60
8945;DHT22;4507;40.232;29.132;2023-01-10T04:28:20;5.60;65.50
8945;DHT22;4507;40.232;29.132;2023-01-10T04:30:51;5.60;65.50
8945;DHT22;4507;40.232;29.132;2023-01-10T04:33:20;5.60;65.50
8945;DHT22;4507;40.232;29.132;2023-01-10T04:35:49;5.60;65.50
8945;DHT22;4507;40.232;29.132;2023-01-10T04:38:19;5.60;65.50
8945;DHT22;4507;40.232;29.132;2023-01-10T04:40:53;5.60;65.50
8945;DHT22;4507;40.232;29.132;2023-01-10T04:43:23;5.60;65.50
8945;DHT22;4507;40.232;29.132;2023-01-10T04:45:52;5.60;65.50
8945;DHT22;4507;40.232;29.132;2023-01-10T04:48:22;5.60;65.50
8945;DHT22;4507;40.232;29.132;2023-01-10T04:50:51;5.60;65.50
8945;DHT22;4507;40.232;29.132;2023-01-10T04:53:21;5.60;65.60
8945;DHT22;4507;40.232;29.132;2023-01-10T04:55:52;5.50;65.50
8945;DHT22;4507;40.232;29.132;2023-01-10T04:58:21;5.50;65.70
8945;DHT22;4507;40.232;29.132;2023-01-10T05:00:50;5.50;65.70
8945;DHT22;4507;40.232;29.132;2023-01-10T05:03:19;5.50;65.70
8945;DHT22;4507;40.232;29.132;2023-01-10T05:05:48;5.50;65.80
8945;DHT22;4507;40.232;29.132;2023-01-10T05:08:17;5.50;65.80
8945;DHT22;4507;40.232;29.132;2023-01-10T05:10:46;5.50;65.90
8945;DHT22;4507;40.232;29.132;2023-01-10T05:13:16;5.50;65.90
8945;DHT22;4507;40.232;29.132;2023-01-10T05:15:45;5.50;65.90
8945;DHT22;4507;40.232;29.132;2023-01-10T05:18:14;5.50;65.80
8945;DHT22;4507;40.232;29.132;2023-01-10T05:20:44;5.50;65.90
8945;DHT22;4507;40.232;29.132;2023-01-10T05:23:13;5.50;65.80
8945;DHT22;4507;40.232;29.132;2023-01-10T05:25:42;5.60;65.90
8945;DHT22;4507;40.232;29.132;2023-01-10T05:28:11;5.60;65.80
8945;DHT22;4507;40.232;29.132;2023-01-10T05:30:41;5.60;65.80
8945;DHT22;4507;40.232;29.132;2023-01-10T05:33:11;5.60;65.70
8945;DHT22;4507;40.232;29.132;2023-01-10T05:35:40;5.60;65.70
8945;DHT22;4507;40.232;29.132;2023-01-10T05:38:09;5.60;65.60
8945;DHT22;4507;40.232;29.132;2023-01-10T05:40:38;5.70;65.70
8945;DHT22;4507;40.232;29.132;2023-01-10T05:43:07;5.70;65.70
8945;DHT22;4507;40.232;29.132;2023-01-10T05:45:38;5.70;65.80
8945;DHT22;4507;40.232;29.132;2023-01-10T05:48:09;5.70;65.70
8945;DHT22;4507;40.232;29.132;2023-01-10T05:50:37;5.70;65.60
8945;DHT22;4507;40.232;29.132;2023-01-10T05:53:07;5.70;65.60
8945;DHT22;4507;40.232;29.132;2023-01-10T05:55:36;5.80;65.70
8945;DHT22;4507;40.232;29.132;2023-01-10T05:58:05;5.80;65.60
8945;DHT22;4507;40.232;29.132;2023-01-10T06:00:34;5.80;65.50
8945;DHT22;4507;40.232;29.132;2023-01-10T06:03:03;5.80;65.30
8945;DHT22;4507;40.232;29.132;2023-01-10T06:05:34;5.90;65.30
8945;DHT22;4507;40.232;29.132;2023-01-10T06:08:04;5.90;65.20
8945;DHT22;4507;40.232;29.132;2023-01-10T06:10:33;6.00;65.00
8945;DHT22;4507;40.232;29.132;2023-01-10T06:13:02;6.00;64.90
8945;DHT22;4507;40.232;29.132;2023-01-10T06:15:32;6.00;64.80
8945;DHT22;4507;40.232;29.132;2023-01-10T06:18:02;6.10;64.80
8945;DHT22;4507;40.232;29.132;2023-01-10T06:20:31;6.10;64.70
8945;DHT22;4507;40.232;29.132;2023-01-10T06:23:01;6.10;64.60
8945;DHT22;4507;40.232;29.132;2023-01-10T06:25:31;6.20;64.50
8945;DHT22;4507;40.232;29.132;2023-01-10T06:28:20;6.20;64.40
8945;DHT22;4507;40.232;29.132;2023-01-10T06:30:49;6.20;64.30
8945;DHT22;4507;40.232;29.132;2023-01-10T06:33:19;6.30;64.20
8945;DHT22;4507;40.232;29.132;2023-01-10T06:35:48;6.30;64.10
8945;DHT22;4507;40.232;29.132;2023-01-10T06:38:18;6.30;64.30
8945;DHT22;4507;40.232;29.132;2023-01-10T06:40:48;6.40;64.30
8945;DHT22;4507;40.232;29.132;2023-01-10T06:43:17;6.50;64.10
8945;DHT22;4507;40.232;29.132;2023-01-10T06:45:46;6.50;63.90
8945;DHT22;4507;40.232;29.132;2023-01-10T06:48:15;6.50;63.60
8945;DHT22;4507;40.232;29.132;2023-01-10T06:50:44;6.60;63.50
8945;DHT22;4507;40.232;29.132;2023-01-10T06:53:13;6.60;63.40
8945;DHT22;4507;40.232;29.132;2023-01-10T06:55:43;6.70;63.50
8945;DHT22;4507;40.232;29.132;2023-01-10T06:58:13;6.70;63.40
8945;DHT22;4507;40.232;29.132;2023-01-10T07:00:44;6.80;64.10
8945;DHT22;4507;40.232;29.132;2023-01-10T07:03:13;6.80;63.10
8945;DHT22;4507;40.232;29.132;2023-01-10T07:05:43;6.90;62.90
8945;DHT22;4507;40.232;29.132;2023-01-10T07:08:12;6.90;62.70
8945;DHT22;4507;40.232;29.132;2023-01-10T07:10:42;7.00;62.40
8945;DHT22;4507;40.232;29.132;2023-01-10T07:13:11;7.00;62.40
8945;DHT22;4507;40.232;29.132;2023-01-10T07:15:41;7.10;62.40
8945;DHT22;4507;40.232;29.132;2023-01-10T07:18:10;7.10;62.20
8945;DHT22;4507;40.232;29.132;2023-01-10T07:20:39;7.20;61.90
8945;DHT22;4507;40.232;29.132;2023-01-10T07:23:27;7.30;62.00
8945;DHT22;4507;40.232;29.132;2023-01-10T07:26:01;7.40;62.00
8945;DHT22;4507;40.232;29.132;2023-01-10T07:28:31;7.40;61.80
8945;DHT22;4507;40.232;29.132;2023-01-10T07:31:02;7.40;61.30
8945;DHT22;4507;40.232;29.132;2023-01-10T07:33:32;7.50;60.70
8945;DHT22;4507;40.232;29.132;2023-01-10T07:36:01;7.50;60.50
8945;DHT22;4507;40.232;29.132;2023-01-10T07:38:31;7.60;60.50
8945;DHT22;4507;40.232;29.132;2023-01-10T07:41:02;7.60;60.50
8945;DHT22;4507;40.232;29.132;2023-01-10T07:43:32;7.60;60.40
8945;DHT22;4507;40.232;29.132;2023-01-10T07:46:04;7.70;60.30
8945;DHT22;4507;40.232;29.132;2023-01-10T07:48:36;7.70;60.30
8945;DHT22;4507;40.232;29.132;2023-01-10T07:51:05;7.80;60.20
8945;DHT22;4507;40.232;29.132;2023-01-10T07:53:34;7.70;59.90
8945;DHT22;4507;40.232;29.132;2023-01-10T07:56:05;7.80;59.90
8945;DHT22;4507;40.232;29.132;2023-01-10T07:58:35;7.80;59.70
8945;DHT22;4507;40.232;29.132;2023-01-10T08:01:05;7.80;59.70
8945;DHT22;4507;40.232;29.132;2023-01-10T08:03:34;7.90;59.70
8945;DHT22;4507;40.232;29.132;2023-01-10T08:06:05;7.90;59.50
8945;DHT22;4507;40.232;29.132;2023-01-10T08:08:55;7.90;59.60
8945;DHT22;4507;40.232;29.132;2023-01-10T08:11:25;8.00;59.60
8945;DHT22;4507;40.232;29.132;2023-01-10T08:13:54;8.00;59.50
8945;DHT22;4507;40.232;29.132;2023-01-10T08:16:24;8.00;59.60
8945;DHT22;4507;40.232;29.132;2023-01-10T08:18:53;8.00;59.50
8945;DHT22;4507;40.232;29.132;2023-01-10T08:21:22;8.10;59.50
8945;DHT22;4507;40.232;29.132;2023-01-10T08:23:51;8.10;59.50
8945;DHT22;4507;40.232;29.132;2023-01-10T08:26:21;8.20;59.40
8945;DHT22;4507;40.232;29.132;2023-01-10T08:28:52;8.30;59.30
8945;DHT22;4507;40.232;29.132;2023-01-10T08:31:21;8.30;59.30
8945;DHT22;4507;40.232;29.132;2023-01-10T08:33:51;8.40;59.30
8945;DHT22;4507;40.232;29.132;2023-01-10T08:36:20;8.50;59.40
8945;DHT22;4507;40.232;29.132;2023-01-10T08:38:54;8.60;59.60
8945;DHT22;4507;40.232;29.132;2023-01-10T08:41:23;8.60;59.00
8945;DHT22;4507;40.232;29.132;2023-01-10T08:43:53;8.70;58.80
8945;DHT22;4507;40.232;29.132;2023-01-10T08:46:23;8.80;58.80
8945;DHT22;4507;40.232;29.132;2023-01-10T08:48:52;8.80;58.70
8945;DHT22;4507;40.232;29.132;2023-01-10T08:51:21;8.90;58.80
8945;DHT22;4507;40.232;29.132;2023-01-10T08:53:50;8.90;59.30
8945;DHT22;4507;40.232;29.132;2023-01-10T08:56:19;9.00;58.70
8945;DHT22;4507;40.232;29.132;2023-01-10T08:58:48;9.00;58.50
8945;DHT22;4507;40.232;29.132;2023-01-10T09:01:18;9.10;58.30
8945;DHT22;4507;40.232;29.132;2023-01-10T09:03:48;9.20;58.30
8945;DHT22;4507;40.232;29.132;2023-01-10T09:06:18;9.20;58.10
8945;DHT22;4507;40.232;29.132;2023-01-10T09:08:47;9.30;58.10
8945;DHT22;4507;40.232;29.132;2023-01-10T09:11:16;9.40;58.30
8945;DHT22;4507;40.232;29.132;2023-01-10T09:13:48;9.40;57.90
8945;DHT22;4507;40.232;29.132;2023-01-10T09:16:38;9.50;58.10
8945;DHT22;4507;40.232;29.132;2023-01-10T09:19:07;9.60;58.30
8945;DHT22;4507;40.232;29.132;2023-01-10T09:21:36;9.70;58.10
8945;DHT22;4507;40.232;29.132;2023-01-10T09:24:06;9.70;58.00
8945;DHT22;4507;40.232;29.132;2023-01-10T09:26:35;9.80;57.70
8945;DHT22;4507;40.232;29.132;2023-01-10T09:29:04;9.90;57.50
8945;DHT22;4507;40.232;29.132;2023-01-10T09:31:33;10.00;56.80
8945;DHT22;4507;40.232;29.132;2023-01-10T09:34:04;10.10;57.50
8945;DHT22;4507;40.232;29.132;2023-01-10T09:36:33;10.30;57.60
8945;DHT22;4507;40.232;29.132;2023-01-10T09:39:02;10.60;57.00
8945;DHT22;4507;40.232;29.132;2023-01-10T09:41:54;10.80;55.70
8945;DHT22;4507;40.232;29.132;2023-01-10T09:44:38;11.00;54.80
8945;DHT22;4507;40.232;29.132;2023-01-10T09:47:14;11.10;54.90
8945;DHT22;4507;40.232;29.132;2023-01-10T09:50:01;11.20;55.50
8945;DHT22;4507;40.232;29.132;2023-01-10T09:52:36;11.30;54.80
8945;DHT22;4507;40.232;29.132;2023-01-10T09:55:19;11.50;54.90
8945;DHT22;4507;40.232;29.132;2023-01-10T09:57:52;11.70;55.50
8945;DHT22;4507;40.232;29.132;2023-01-10T10:00:26;12.00;54.70
8945;DHT22;4507;40.232;29.132;2023-01-10T10:02:58;12.30;54.00
8945;DHT22;4507;40.232;29.132;2023-01-10T10:05:28;12.60;54.30
8945;DHT22;4507;40.232;29.132;2023-01-10T10:08:00;12.80;52.90
8945;DHT22;4507;40.232;29.132;2023-01-10T10:10:36;12.90;51.60
8945;DHT22;4507;40.232;29.132;2023-01-10T10:13:35;13.00;51.30
8945;DHT22;4507;40.232;29.132;2023-01-10T10:16:13;13.00;51.10
8945;DHT22;4507;40.232;29.132;2023-01-10T10:18:58;13.00;51.20
8945;DHT22;4507;40.232;29.132;2023-01-10T10:21:38;13.00;51.10
8945;DHT22;4507;40.232;29.132;2023-01-10T10:24:26;13.00;50.20
8945;DHT22;4507;40.232;29.132;2023-01-10T10:26:58;13.00;49.90
8945;DHT22;4507;40.232;29.132;2023-01-10T10:30:13;12.90;50.00
8945;DHT22;4507;40.232;29.132;2023-01-10T10:33:14;12.90;50.30
8945;DHT22;4507;40.232;29.132;2023-01-10T10:35:51;12.80;50.00
8945;DHT22;4507;40.232;29.132;2023-01-10T10:38:25;12.70;49.80
8945;DHT22;4507;40.232;29.132;2023-01-10T10:40:57;12.70;50.10
8945;DHT22;4507;40.232;29.132;2023-01-10T10:43:31;12.60;50.20
8945;DHT22;4507;40.232;29.132;2023-01-10T10:46:02;12.60;50.40
8945;DHT22;4507;40.232;29.132;2023-01-10T10:48:39;12.50;50.80
8945;DHT22;4507;40.232;29.132;2023-01-10T10:51:13;12.50;51.20
8945;DHT22;4507;40.232;29.132;2023-01-10T10:53:45;12.60;51.40
8945;DHT22;4507;40.232;29.132;2023-01-10T10:56:18;12.60;51.10
8945;DHT22;4507;40.232;29.132;2023-01-10T10:58:51;12.60;50.90
8945;DHT22;4507;40.232;29.132;2023-01-10T11:01:22;12.70;51.00
8945;DHT22;4507;40.232;29.132;2023-01-10T11:03:56;12.70;50.60
8945;DHT22;4507;40.232;29.132;2023-01-10T11:06:45;12.80;51.00
8945;DHT22;4507;40.232;29.132;2023-01-10T11:09:19;12.80;50.90
8945;DHT22;4507;40.232;29.132;2023-01-10T11:11:51;12.90;51.00
8945;DHT22;4507;40.232;29.132;2023-01-10T11:14:44;13.00;51.30
8945;DHT22;4507;40.232;29.132;2023-01-10T11:17:19;13.10;51.40
8945;DHT22;4507;40.232;29.132;2023-01-10T11:19:56;13.20;50.70
8945;DHT22;4507;40.232;29.132;2023-01-10T11:22:28;13.30;50.60
8945;DHT22;4507;40.232;29.132;2023-01-10T11:25:00;13.30;49.90
8945;DHT22;4507;40.232;29.132;2023-01-10T11:27:31;13.40;49.90
8945;DHT22;4507;40.232;29.132;2023-01-10T11:30:03;13.40;49.90
8945;DHT22;4507;40.232;29.132;2023-01-10T11:32:38;13.50;50.30
8945;DHT22;4507;40.232;29.132;2023-01-10T11:35:15;13.60;50.30
8945;DHT22;4507;40.232;29.132;2023-01-10T11:37:58;13.60;49.90
8945;DHT22;4507;40.232;29.132;2023-01-10T11:40:30;13.70;49.50
8945;DHT22;4507;40.232;29.132;2023-01-10T11:43:00;13.70;49.40
8945;DHT22;4507;40.232;29.132;2023-01-10T11:45:53;13.70;49.80
8945;DHT22;4507;40.232;29.132;2023-01-10T11:48:24;13.80;49.80
8945;DHT22;4507;40.232;29.132;2023-01-10T11:51:17;13.80;49.60
8945;DHT22;4507;40.232;29.132;2023-01-10T11:53:48;13.80;49.40
8945;DHT22;4507;40.232;29.132;2023-01-10T11:56:26;13.80;49.30
8945;DHT22;4507;40.232;29.132;2023-01-10T11:58:56;13.80;49.50
8945;DHT22;4507;40.232;29.132;2023-01-10T12:01:29;13.90;49.60
8945;DHT22;4507;40.232;29.132;2023-01-10T12:04:00;13.90;49.50
8945;DHT22;4507;40.232;29.132;2023-01-10T12:06:29;14.00;49.60
8945;DHT22;4507;40.232;29.132;2023-01-10T12:08:59;14.00;49.50
8945;DHT22;4507;40.232;29.132;2023-01-10T12:11:31;14.10;49.60
8945;DHT22;4507;40.232;29.132;2023-01-10T12:14:18;14.20;49.70
8945;DHT22;4507;40.232;29.132;2023-01-10T12:16:58;14.40;50.00
8945;DHT22;4507;40.232;29.132;2023-01-10T12:19:28;14.60;49.50
8945;DHT22;4507;40.232;29.132;2023-01-10T12:21:59;14.80;48.90
8945;DHT22;4507;40.232;29.132;2023-01-10T12:24:34;14.90;48.40
8945;DHT22;4507;40.232;29.132;2023-01-10T12:27:07;15.00;47.70
8945;DHT22;4507;40.232;29.132;2023-01-10T12:30:03;15.10;47.70
8945;DHT22;4507;40.232;29.132;2023-01-10T12:32:37;15.20;47.40
8945;DHT22;4507;40.232;29.132;2023-01-10T12:35:35;15.20;47.60
8945;DHT22;4507;40.232;29.132;2023-01-10T12:38:19;15.30;47.20
8945;DHT22;4507;40.232;29.132;2023-01-10T12:40:53;15.30;46.90
8945;DHT22;4507;40.232;29.132;2023-01-10T12:43:32;15.30;46.60
8945;DHT22;4507;40.232;29.132;2023-01-10T12:46:23;15.30;46.40
8945;DHT22;4507;40.232;29.132;2023-01-10T12:49:20;15.30;46.50
8945;DHT22;4507;40.232;29.132;2023-01-10T12:51:53;15.30;46.50
8945;DHT22;4507;40.232;29.132;2023-01-10T12:54:24;15.20;46.40
8945;DHT22;4507;40.232;29.132;2023-01-10T12:56:54;15.20;46.50
8945;DHT22;4507;40.232;29.132;2023-01-10T12:59:32;15.20;46.80
8945;DHT22;4507;40.232;29.132;2023-01-10T13:02:06;15.10;46.90
8945;DHT22;4507;40.232;29.132;2023-01-10T13:04:41;15.10;47.30
8945;DHT22;4507;40.232;29.132;2023-01-10T13:07:15;15.10;47.50
8945;DHT22;4507;40.232;29.132;2023-01-10T13:09:45;15.10;47.20
8945;DHT22;4507;40.232;29.132;2023-01-10T13:12:18;15.00;47.20
8945;DHT22;4507;40.232;29.132;2023-01-10T13:14:55;15.00;47.20
8945;DHT22;4507;40.232;29.132;2023-01-10T13:17:33;15.00;47.20
8945;DHT22;4507;40.232;29.132;2023-01-10T13:20:28;15.00;47.30
8945;DHT22;4507;40.232;29.132;2023-01-10T13:22:59;14.90;47.20
8945;DHT22;4507;40.232;29.132;2023-01-10T13:25:31;14.90;47.40
8945;DHT22;4507;40.232;29.132;2023-01-10T13:28:06;14.90;47.60
8945;DHT22;4507;40.232;29.132;2023-01-10T13:30:38;14.90;47.70
8945;DHT22;4507;40.232;29.132;2023-01-10T13:33:20;14.90;47.90
8945;DHT22;4507;40.232;29.132;2023-01-10T13:35:51;14.90;47.80
8945;DHT22;4507;40.232;29.132;2023-01-10T13:38:48;14.90;47.80
8945;DHT22;4507;40.232;29.132;2023-01-10T13:41:18;14.90;47.70
8945;DHT22;4507;40.232;29.132;2023-01-10T13:44:08;14.80;47.60
8945;DHT22;4507;40.232;29.132;2023-01-10T13:46:43;14.80;47.70
8945;DHT22;4507;40.232;29.132;2023-01-10T13:49:41;14.80;47.70
8945;DHT22;4507;40.232;29.132;2023-01-10T13:52:31;14.80;47.70
8945;DHT22;4507;40.232;29.132;2023-01-10T13:57:50;14.80;48.00
8945;DHT22;4507;40.232;29.132;2023-01-10T14:00:22;14.80;48.10
8945;DHT22;4507;40.232;29.132;2023-01-10T14:03:47;14.80;48.10
8945;DHT22;4507;40.232;29.132;2023-01-10T14:06:33;14.80;48.20
8945;DHT22;4507;40.232;29.132;2023-01-10T14:09:31;14.70;48.40
8945;DHT22;4507;40.232;29.132;2023-01-10T14:12:02;14.70;48.40
8945;DHT22;4507;40.232;29.132;2023-01-10T14:14:34;14.70;48.30
8945;DHT22;4507;40.232;29.132;2023-01-10T14:17:14;14.60;48.50
8945;DHT22;4507;40.232;29.132;2023-01-10T14:20:01;14.50;48.50
8945;DHT22;4507;40.232;29.132;2023-01-10T14:22:57;14.50;48.80
8945;DHT22;4507;40.232;29.132;2023-01-10T14:25:28;14.40;48.90
8945;DHT22;4507;40.232;29.132;2023-01-10T14:27:57;14.40;49.00
8945;DHT22;4507;40.232;29.132;2023-01-10T14:30:29;14.40;48.90
8945;DHT22;4507;40.232;29.132;2023-01-10T14:33:03;14.40;49.00
8945;DHT22;4507;40.232;29.132;2023-01-10T14:35:36;14.30;48.90
8945;DHT22;4507;40.232;29.132;2023-01-10T14:38:15;14.40;49.10
8945;DHT22;4507;40.232;29.132;2023-01-10T14:40:47;14.40;49.20
8945;DHT22;4507;40.232;29.132;2023-01-10T14:43:21;14.40;49.00
8945;DHT22;4507;40.232;29.132;2023-01-10T14:45:54;14.40;49.10
8945;DHT22;4507;40.232;29.132;2023-01-10T14:48:28;14.40;48.90
8945;DHT22;4507;40.232;29.132;2023-01-10T14:51:17;14.30;49.00
8945;DHT22;4507;40.232;29.132;2023-01-10T14:53:54;14.20;48.90
8945;DHT22;4507;40.232;29.132;2023-01-10T14:56:26;14.20;49.10
8945;DHT22;4507;40.232;29.132;2023-01-10T14:58:55;14.10;49.40
8945;DHT22;4507;40.232;29.132;2023-01-10T15:01:27;14.00;49.50
8945;DHT22;4507;40.232;29.132;2023-01-10T15:03:57;14.00;50.00
8945;DHT22;4507;40.232;29.132;2023-01-10T15:06:29;14.00;50.30
8945;DHT22;4507;40.232;29.132;2023-01-10T15:09:19;14.00;50.40
8945;DHT22;4507;40.232;29.132;2023-01-10T15:11:50;14.00;50.40
8945;DHT22;4507;40.232;29.132;2023-01-10T15:14:21;14.10;50.50
8945;DHT22;4507;40.232;29.132;2023-01-10T15:16:55;14.20;50.40
8945;DHT22;4507;40.232;29.132;2023-01-10T15:19:31;14.30;50.40
8945;DHT22;4507;40.232;29.132;2023-01-10T15:22:01;14.30;50.20
8945;DHT22;4507;40.232;29.132;2023-01-10T15:24:34;14.20;50.10
8945;DHT22;4507;40.232;29.132;2023-01-10T15:27:05;14.10;50.10
8945;DHT22;4507;40.232;29.132;2023-01-10T15:29:35;14.10;50.20
8945;DHT22;4507;40.232;29.132;2023-01-10T15:32:34;14.00;50.30
8945;DHT22;4507;40.232;29.132;2023-01-10T15:35:07;14.00;50.30
8945;DHT22;4507;40.232;29.132;2023-01-10T15:37:48;14.00;50.40
8945;DHT22;4507;40.232;29.132;2023-01-10T15:40:22;13.90;50.60
8945;DHT22;4507;40.232;29.132;2023-01-10T15:43:09;13.90;50.50
8945;DHT22;4507;40.232;29.132;2023-01-10T15:45:39;13.90;50.50
8945;DHT22;4507;40.232;29.132;2023-01-10T15:48:24;13.90;50.40
8945;DHT22;4507;40.232;29.132;2023-01-10T15:50:55;14.10;50.20
8945;DHT22;4507;40.232;29.132;2023-01-10T15:53:52;14.20;49.70
8945;DHT22;4507;40.232;29.132;2023-01-10T15:56:29;14.30;49.80
8945;DHT22;4507;40.232;29.132;2023-01-10T15:58:59;14.40;49.40
8945;DHT22;4507;40.232;29.132;2023-01-10T16:01:30;14.30;49.30
8945;DHT22;4507;40.232;29.132;2023-01-10T16:04:02;14.30;49.30
8945;DHT22;4507;40.232;29.132;2023-01-10T16:06:33;14.30;49.30
8945;DHT22;4507;40.232;29.132;2023-01-10T16:09:04;14.20;49.40
8945;DHT22;4507;40.232;29.132;2023-01-10T16:11:38;14.20;49.50
8945;DHT22;4507;40.232;29.132;2023-01-10T16:14:26;14.20;49.80
8945;DHT22;4507;40.232;29.132;2023-01-10T16:16:55;14.30;49.90
8945;DHT22;4507;40.232;29.132;2023-01-10T16:19:25;14.30;49.70
8945;DHT22;4507;40.232;29.132;2023-01-10T16:22:15;14.40;49.50
8945;DHT22;4507;40.232;29.132;2023-01-10T16:24:45;14.40;49.20
8945;DHT22;4507;40.232;29.132;2023-01-10T16:27:18;14.40;49.10
8945;DHT22;4507;40.232;29.132;2023-01-10T16:29:47;14.40;48.90
8945;DHT22;4507;40.232;29.132;2023-01-10T16:32:16;14.40;48.80
8945;DHT22;4507;40.232;29.132;2023-01-10T16:34:45;14.40;48.60
8945;DHT22;4507;40.232;29.132;2023-01-10T16:37:15;14.40;48.70
8945;DHT22;4507;40.232;29.132;2023-01-10T16:39:44;14.40;48.80
8945;DHT22;4507;40.232;29.132;2023-01-10T16:42:13;14.30;48.70
8945;DHT22;4507;40.232;29.132;2023-01-10T16:45:01;14.20;48.70